WXM80 ListenWXM80 Stop

You find our weather info also at:

UK Metoffice

WeatherCloud

Weather Underground

Northeastern Weather Network

AWEKAS

Citizen Weather Observer Program (CWOP)

HAMweather, WeatherForYou, PWS Weather


Weather Underground History page Text

Daily Summary for February 27, 2016 Units:  English    Metric   Both
« Previous Day
Next Day »
Daily Weekly Monthly Yearly Custom
  High: Low: Average:
Temperature: 40.8 °F 25.7 °F 33.4 °F
Dew Point: 25.4 °F 13.3 °F 19.3 °F
Humidity: 68 % 43 % 56 %
Wind Speed: 10.2 mph 0.2 mph 4 mph
Wind Gust: 16.1 mph - -
Wind:- - WSW
Pressure: 30.12 in 29.95 in -
Precipitation: 0.00 in    
Historical Graphs
 
 
Tabular Data for February 27, 2016
Time Temperature Dew Point Pressure Wind Wind Speed Wind Gust Humidity Rainfall Rate (Hourly)
00:01 27.6 °F 13.5 °F 30.07 in WNW 4.7 mph 10.0 mph 55 % 0.00 in
00:06 27.5 °F 13.4 °F 30.07 in WNW 6.2 mph 16.1 mph 55 % 0.00 in
00:11 27.5 °F 13.4 °F 30.07 in West 6.7 mph 10.0 mph 55 % 0.00 in
00:16 27.5 °F 13.4 °F 30.07 in NNW 4.7 mph 9.2 mph 55 % 0.00 in
00:21 27.4 °F 14.1 °F 30.07 in WNW 5.2 mph 9.0 mph 57 % 0.00 in
00:27 27.4 °F 13.3 °F 30.07 in WNW 6.4 mph 11.5 mph 55 % 0.00 in
00:32 27.4 °F 14.1 °F 30.07 in NW 7.5 mph 11.5 mph 57 % 0.00 in
00:37 27.3 °F 13.7 °F 30.07 in NNW 5.3 mph 10.4 mph 56 % 0.00 in
00:42 27.2 °F 14.0 °F 30.07 in North 5.8 mph 9.2 mph 57 % 0.00 in
00:47 27.2 °F 14.0 °F 30.07 in West 4.7 mph 9.0 mph 57 % 0.00 in
00:52 27.2 °F 14.0 °F 30.07 in WNW 2.7 mph 6.9 mph 57 % 0.00 in
00:57 27.1 °F 14.3 °F 30.07 in WNW 3.0 mph 4.0 mph 58 % 0.00 in
01:02 27.1 °F 14.3 °F 30.07 in WNW 6.9 mph 11.5 mph 58 % 0.00 in
01:12 27.0 °F 13.8 °F 30.07 in NNE 7.1 mph 13.8 mph 57 % 0.00 in
01:23 27.1 °F 14.3 °F 30.07 in NW 6.4 mph 10.4 mph 58 % 0.00 in
01:28 27.0 °F 14.2 °F 30.07 in NW 3.7 mph 7.0 mph 58 % 0.00 in
01:33 27.0 °F 13.8 °F 30.07 in NW 3.3 mph 6.9 mph 57 % 0.00 in
01:38 26.9 °F 14.1 °F 30.07 in WNW 3.5 mph 5.8 mph 58 % 0.00 in
01:43 26.9 °F 14.1 °F 30.07 in NW 3.8 mph 7.0 mph 58 % 0.00 in
01:48 26.8 °F 14.4 °F 30.07 in WNW 3.9 mph 5.8 mph 59 % 0.00 in
01:53 26.8 °F 14.4 °F 30.08 in WNW 2.7 mph 6.0 mph 59 % 0.00 in
01:58 26.8 °F 14.4 °F 30.07 in WNW 4.7 mph 11.0 mph 59 % 0.00 in
02:09 26.7 °F 13.9 °F 30.08 in North 5.9 mph 10.4 mph 58 % 0.00 in
02:14 26.8 °F 14.4 °F 30.08 in West 3.7 mph 9.2 mph 59 % 0.00 in
02:19 26.8 °F 14.4 °F 30.08 in NNW 4.7 mph 6.9 mph 59 % 0.00 in
02:24 26.8 °F 14.4 °F 30.08 in NW 2.8 mph 9.2 mph 59 % 0.00 in
02:29 26.8 °F 14.4 °F 30.07 in WNW 4.3 mph 6.9 mph 59 % 0.00 in
02:34 26.8 °F 14.4 °F 30.08 in WNW 5.1 mph 9.2 mph 59 % 0.00 in
02:39 26.8 °F 14.4 °F 30.08 in NW 4.3 mph 8.1 mph 59 % 0.00 in
02:44 26.8 °F 14.4 °F 30.08 in WNW 3.9 mph 8.1 mph 59 % 0.00 in
02:49 26.8 °F 14.4 °F 30.08 in West 4.4 mph 8.1 mph 59 % 0.00 in
02:54 26.8 °F 14.0 °F 30.08 in WNW 5.7 mph 11.5 mph 58 % 0.00 in
03:00 26.9 °F 14.5 °F 30.08 in NNW 3.4 mph 5.8 mph 59 % 0.00 in
03:05 26.8 °F 14.4 °F 30.08 in West 1.5 mph 9.2 mph 59 % 0.00 in
03:10 26.8 °F 14.4 °F 30.08 in WNW 2.3 mph 5.8 mph 59 % 0.00 in
03:15 26.8 °F 14.4 °F 30.08 in West 4.3 mph 9.2 mph 59 % 0.00 in
03:20 26.8 °F 14.8 °F 30.08 in WSW 4.2 mph 8.0 mph 60 % 0.00 in
03:25 26.7 °F 14.3 °F 30.08 in WNW 3.8 mph 6.9 mph 59 % 0.00 in
03:30 26.7 °F 14.7 °F 30.08 in WNW 5.9 mph 9.2 mph 60 % 0.00 in
03:35 26.7 °F 14.7 °F 30.08 in WNW 2.5 mph 9.2 mph 60 % 0.00 in
03:40 26.7 °F 14.7 °F 30.08 in North 3.6 mph 5.8 mph 60 % 0.00 in
03:45 26.7 °F 14.7 °F 30.08 in WNW 4.6 mph 10.4 mph 60 % 0.00 in
03:51 26.7 °F 14.7 °F 30.08 in WNW 1.6 mph 2.3 mph 60 % 0.00 in
03:56 26.7 °F 15.0 °F 30.08 in NW 4.9 mph 10.4 mph 61 % 0.00 in
04:01 26.7 °F 15.0 °F 30.08 in WNW 3.8 mph 8.0 mph 61 % 0.00 in
04:06 26.7 °F 15.0 °F 30.08 in NW 3.2 mph 8.1 mph 61 % 0.00 in
04:11 26.6 °F 14.9 °F 30.08 in NNW 2.8 mph 6.9 mph 61 % 0.00 in
04:16 26.6 °F 14.9 °F 30.09 in NW 2.3 mph 5.8 mph 61 % 0.00 in
04:21 26.6 °F 15.3 °F 30.09 in NW 4.8 mph 9.2 mph 62 % 0.00 in
04:26 26.6 °F 14.9 °F 30.08 in NW 2.7 mph 5.8 mph 61 % 0.00 in
04:31 26.6 °F 15.3 °F 30.08 in NW 4.3 mph 10.4 mph 62 % 0.00 in
04:42 26.5 °F 15.2 °F 30.09 in WNW 4.3 mph 8.1 mph 62 % 0.00 in
04:47 26.5 °F 15.2 °F 30.09 in NW 2.2 mph 7.0 mph 62 % 0.00 in
04:52 26.5 °F 14.9 °F 30.09 in WNW 2.4 mph 4.6 mph 61 % 0.00 in
04:57 26.4 °F 14.8 °F 30.09 in NW 2.3 mph 6.0 mph 61 % 0.00 in
05:02 26.4 °F 15.1 °F 30.09 in NW 0.9 mph 3.5 mph 62 % 0.00 in
05:07 26.4 °F 15.1 °F 30.09 in WNW 2.8 mph 5.0 mph 62 % 0.00 in
05:17 26.3 °F 15.0 °F 30.10 in West 1.8 mph 3.5 mph 62 % 0.00 in
05:22 26.3 °F 15.4 °F 30.10 in WNW 1.1 mph 3.5 mph 63 % 0.00 in
05:33 26.2 °F 14.9 °F 30.10 in West 1.5 mph 3.5 mph 62 % 0.00 in
05:38 26.1 °F 15.2 °F 30.11 in WNW 1.2 mph 4.6 mph 63 % 0.00 in
05:43 26.1 °F 15.2 °F 30.11 in West 4.3 mph 6.0 mph 63 % 0.00 in
05:48 26.0 °F 15.1 °F 30.11 in West 1.2 mph 3.0 mph 63 % 0.00 in
05:58 26.0 °F 15.1 °F 30.10 in West 1.8 mph 3.0 mph 63 % 0.00 in
06:03 25.9 °F 15.0 °F 30.11 in West 1.8 mph 4.6 mph 63 % 0.00 in
06:08 25.9 °F 15.0 °F 30.11 in WNW 2.7 mph 4.6 mph 63 % 0.00 in
06:13 25.9 °F 15.0 °F 30.11 in WNW 1.3 mph 3.5 mph 63 % 0.00 in
06:18 25.9 °F 15.0 °F 30.11 in West 1.5 mph 3.5 mph 63 % 0.00 in
06:24 25.8 °F 15.3 °F 30.11 in West 1.8 mph 3.5 mph 64 % 0.00 in
06:29 25.8 °F 15.3 °F 30.11 in West 0.9 mph 3.5 mph 64 % 0.00 in
06:34 25.8 °F 15.6 °F 30.11 in WNW 1.1 mph 3.5 mph 65 % 0.00 in
06:39 25.7 °F 15.6 °F 30.11 in WNW 1.3 mph 3.5 mph 65 % 0.00 in
06:49 25.8 °F 15.6 °F 30.11 in West 1.3 mph 3.5 mph 65 % 0.00 in
06:54 25.9 °F 15.7 °F 30.11 in West 1.1 mph 2.3 mph 65 % 0.00 in
07:04 26.3 °F 15.8 °F 30.11 in WSW 2.6 mph 5.8 mph 64 % 0.00 in
07:09 26.6 °F 16.4 °F 30.11 in WSW 2.2 mph 3.5 mph 65 % 0.00 in
07:15 26.8 °F 16.2 °F 30.11 in WSW 0.6 mph 3.5 mph 64 % 0.00 in
07:20 27.0 °F 16.4 °F 30.11 in WSW 0.2 mph 1.2 mph 64 % 0.00 in
07:25 27.3 °F 16.7 °F 30.11 in NW 2.0 mph 4.0 mph 64 % 0.00 in
07:30 27.6 °F 16.6 °F 30.11 in WNW 3.4 mph 5.0 mph 63 % 0.00 in
07:35 27.9 °F 16.6 °F 30.11 in NW 0.9 mph 3.5 mph 62 % 0.00 in
07:40 28.1 °F 16.4 °F 30.11 in WNW 4.9 mph 6.9 mph 61 % 0.00 in
07:45 28.4 °F 16.7 °F 30.11 in WNW 0.6 mph 2.3 mph 61 % 0.00 in
07:50 28.6 °F 16.8 °F 30.11 in NW 3.4 mph 8.0 mph 61 % 0.00 in
07:55 28.9 °F 17.1 °F 30.11 in West 3.2 mph 4.6 mph 61 % 0.00 in
08:00 29.1 °F 17.3 °F 30.11 in WNW 3.9 mph 6.0 mph 61 % 0.00 in
08:06 29.3 °F 17.1 °F 30.11 in WNW 3.1 mph 5.8 mph 60 % 0.00 in
08:16 30.1 °F 17.5 °F 30.12 in NNW 2.9 mph 8.1 mph 59 % 0.00 in
08:21 30.3 °F 17.3 °F 30.12 in WNW 4.2 mph 8.1 mph 58 % 0.00 in
08:31 30.7 °F 17.7 °F 30.11 in West 3.0 mph 5.8 mph 58 % 0.00 in
08:36 30.9 °F 17.8 °F 30.11 in NNW 3.1 mph 5.8 mph 58 % 0.00 in
08:41 31.0 °F 17.5 °F 30.11 in WSW 4.7 mph 8.1 mph 57 % 0.00 in
08:51 31.1 °F 17.6 °F 30.11 in West 5.7 mph 8.0 mph 57 % 0.00 in
08:57 31.3 °F 17.8 °F 30.11 in WNW 4.6 mph 11.5 mph 57 % 0.00 in
09:02 31.4 °F 17.9 °F 30.11 in WNW 4.8 mph 8.1 mph 57 % 0.00 in
09:07 31.5 °F 17.6 °F 30.11 in WSW 5.6 mph 8.0 mph 56 % 0.00 in
09:12 31.6 °F 17.7 °F 30.11 in WNW 5.5 mph 12.0 mph 56 % 0.00 in
09:17 31.6 °F 17.7 °F 30.11 in WNW 3.4 mph 6.0 mph 56 % 0.00 in
09:22 31.7 °F 17.4 °F 30.11 in WNW 5.3 mph 7.0 mph 55 % 0.00 in
09:27 31.9 °F 17.5 °F 30.11 in West 4.2 mph 6.9 mph 55 % 0.00 in
09:32 32.1 °F 17.7 °F 30.11 in NW 4.4 mph 5.8 mph 55 % 0.00 in
09:48 32.5 °F 17.7 °F 30.11 in WNW 4.8 mph 8.1 mph 54 % 0.00 in
09:58 32.7 °F 18.3 °F 30.11 in WSW 8.2 mph 10.4 mph 55 % 0.00 in
10:03 33.0 °F 18.6 °F 30.10 in SSW 4.5 mph 7.0 mph 55 % 0.00 in
10:08 33.4 °F 18.5 °F 30.10 in WNW 5.5 mph 9.2 mph 54 % 0.00 in
10:13 33.7 °F 18.8 °F 30.10 in WNW 3.4 mph 5.8 mph 54 % 0.00 in
10:18 33.8 °F 18.5 °F 30.10 in WNW 8.4 mph 13.8 mph 53 % 0.00 in
10:23 33.7 °F 18.4 °F 30.10 in WNW 7.2 mph 11.5 mph 53 % 0.00 in
10:28 33.7 °F 18.4 °F 30.10 in NW 3.3 mph 4.6 mph 53 % 0.00 in
10:34 33.7 °F 18.4 °F 30.10 in WSW 5.7 mph 11.0 mph 53 % 0.00 in
10:39 34.0 °F 19.5 °F 30.09 in WSW 0.7 mph 6.9 mph 55 % 0.00 in
10:44 34.6 °F 19.6 °F 30.09 in WNW 6.1 mph 10.4 mph 54 % 0.00 in
10:49 35.0 °F 19.6 °F 30.09 in NW 3.3 mph 5.8 mph 53 % 0.00 in
10:54 35.3 °F 19.4 °F 30.09 in WNW 5.1 mph 6.9 mph 52 % 0.00 in
10:59 35.3 °F 19.0 °F 30.08 in West 4.9 mph 6.9 mph 51 % 0.00 in
11:04 35.4 °F 19.0 °F 30.08 in WSW 6.2 mph 10.0 mph 51 % 0.00 in
11:14 35.7 °F 19.3 °F 30.08 in WNW 1.3 mph 6.9 mph 51 % 0.00 in
11:19 36.0 °F 19.6 °F 30.08 in WNW 3.3 mph 7.0 mph 51 % 0.00 in
11:25 36.4 °F 20.4 °F 30.08 in WNW 1.8 mph 8.1 mph 52 % 0.00 in
11:30 36.5 °F 19.6 °F 30.07 in WSW 4.2 mph 8.1 mph 50 % 0.00 in
11:35 36.7 °F 20.7 °F 30.07 in West 5.6 mph 10.4 mph 52 % 0.00 in
11:40 37.1 °F 20.2 °F 30.07 in NW 1.6 mph 4.0 mph 50 % 0.00 in
11:45 37.3 °F 19.9 °F 30.07 in NW 5.5 mph 10.4 mph 49 % 0.00 in
11:50 37.1 °F 19.7 °F 30.07 in West 6.5 mph 11.5 mph 49 % 0.00 in
11:55 36.9 °F 19.5 °F 30.07 in NW 4.4 mph 8.0 mph 49 % 0.00 in
12:00 36.9 °F 20.0 °F 30.07 in WNW 3.7 mph 8.1 mph 50 % 0.00 in
12:05 37.1 °F 20.2 °F 30.06 in WNW 5.8 mph 10.4 mph 50 % 0.00 in
12:10 37.2 °F 19.8 °F 30.06 in WSW 5.4 mph 8.1 mph 49 % 0.00 in
12:16 37.3 °F 19.9 °F 30.05 in WSW 4.2 mph 6.0 mph 49 % 0.00 in
12:21 37.3 °F 19.9 °F 30.05 in NW 4.4 mph 11.5 mph 49 % 0.00 in
12:26 37.4 °F 20.4 °F 30.05 in North 3.6 mph 6.9 mph 50 % 0.00 in
12:31 37.9 °F 21.4 °F 30.04 in WNW 4.2 mph 6.9 mph 51 % 0.00 in
12:36 38.2 °F 21.2 °F 30.04 in WNW 3.0 mph 5.8 mph 50 % 0.00 in
12:41 38.3 °F 20.3 °F 30.04 in SW 2.9 mph 11.5 mph 48 % 0.00 in
12:46 38.3 °F 20.8 °F 30.03 in West 4.6 mph 8.1 mph 49 % 0.00 in
12:51 38.4 °F 20.4 °F 30.03 in West 3.5 mph 10.4 mph 48 % 0.00 in
13:01 38.6 °F 20.6 °F 30.02 in WSW 4.1 mph 9.2 mph 48 % 0.00 in
13:07 38.8 °F 20.3 °F 30.01 in SW 4.3 mph 9.2 mph 47 % 0.00 in
13:12 38.9 °F 20.4 °F 30.01 in WSW 3.7 mph 10.4 mph 47 % 0.00 in
13:17 39.1 °F 20.5 °F 30.01 in West 4.5 mph 8.1 mph 47 % 0.00 in
13:22 39.5 °F 20.4 °F 30.00 in WNW 5.1 mph 9.2 mph 46 % 0.00 in
13:27 39.6 °F 20.0 °F 30.00 in WNW 4.5 mph 8.1 mph 45 % 0.00 in
13:32 39.7 °F 20.6 °F 30.00 in NW 3.3 mph 9.0 mph 46 % 0.00 in
13:37 39.6 °F 20.0 °F 30.00 in SSW 5.1 mph 9.2 mph 45 % 0.00 in
13:42 39.7 °F 20.6 °F 30.00 in WNW 2.5 mph 6.9 mph 46 % 0.00 in
13:47 39.8 °F 19.6 °F 30.00 in NW 4.0 mph 6.9 mph 44 % 0.00 in
13:52 39.9 °F 19.7 °F 29.99 in NW 2.4 mph 9.2 mph 44 % 0.00 in
13:58 40.1 °F 19.9 °F 29.99 in West 6.2 mph 10.4 mph 44 % 0.00 in
14:03 40.2 °F 20.5 °F 29.99 in WSW 2.3 mph 7.0 mph 45 % 0.00 in
14:08 40.4 °F 20.2 °F 29.99 in WNW 5.1 mph 9.2 mph 44 % 0.00 in
14:13 40.4 °F 19.6 °F 29.99 in West 5.8 mph 10.4 mph 43 % 0.00 in
14:18 40.3 °F 20.1 °F 29.99 in SW 6.1 mph 11.0 mph 44 % 0.00 in
14:23 40.4 °F 20.2 °F 29.99 in WSW 4.2 mph 6.9 mph 44 % 0.00 in
14:28 40.5 °F 20.3 °F 29.98 in West 3.5 mph 6.0 mph 44 % 0.00 in
14:33 40.7 °F 21.0 °F 29.98 in SW 2.0 mph 3.5 mph 45 % 0.00 in
14:38 40.8 °F 20.5 °F 29.98 in SW 5.3 mph 10.4 mph 44 % 0.00 in
14:49 40.8 °F 20.5 °F 29.98 in SSW 8.1 mph 12.7 mph 44 % 0.00 in
14:54 40.5 °F 19.7 °F 29.97 in South 5.1 mph 6.9 mph 43 % 0.00 in
14:59 40.3 °F 20.1 °F 29.97 in SW 4.9 mph 10.4 mph 44 % 0.00 in
15:04 40.2 °F 19.5 °F 29.97 in SSW 3.4 mph 7.0 mph 43 % 0.00 in
15:09 40.0 °F 19.8 °F 29.98 in South 3.4 mph 6.9 mph 44 % 0.00 in
15:14 39.9 °F 19.7 °F 29.98 in SW 4.7 mph 6.0 mph 44 % 0.00 in
15:19 39.8 °F 19.6 °F 29.97 in SSW 7.2 mph 9.2 mph 44 % 0.00 in
15:24 39.7 °F 20.1 °F 29.97 in SW 5.0 mph 8.1 mph 45 % 0.00 in
15:29 39.7 °F 20.1 °F 29.97 in South 3.5 mph 8.1 mph 45 % 0.00 in
15:34 39.6 °F 20.0 °F 29.97 in SSW 3.9 mph 8.0 mph 45 % 0.00 in
15:40 39.5 °F 19.9 °F 29.97 in West 4.7 mph 11.5 mph 45 % 0.00 in
15:45 39.3 °F 20.2 °F 29.97 in SW 10.2 mph 15.0 mph 46 % 0.00 in
15:50 39.2 °F 20.1 °F 29.97 in SW 6.3 mph 11.5 mph 46 % 0.00 in
15:55 39.1 °F 20.5 °F 29.97 in South 3.7 mph 6.9 mph 47 % 0.00 in
16:00 39.1 °F 20.5 °F 29.97 in SSW 4.9 mph 8.1 mph 47 % 0.00 in
16:10 38.8 °F 20.3 °F 29.97 in WSW 6.0 mph 11.5 mph 47 % 0.00 in
16:15 38.7 °F 20.2 °F 29.97 in SSW 6.6 mph 10.4 mph 47 % 0.00 in
16:20 38.5 °F 20.0 °F 29.97 in SSW 5.4 mph 8.1 mph 47 % 0.00 in
16:25 38.4 °F 20.4 °F 29.96 in South 5.8 mph 11.5 mph 48 % 0.00 in
16:31 38.3 °F 20.3 °F 29.97 in SW 6.4 mph 10.4 mph 48 % 0.00 in
16:36 38.2 °F 20.2 °F 29.96 in SSW 4.6 mph 9.2 mph 48 % 0.00 in
16:41 38.1 °F 20.6 °F 29.96 in SSW 2.7 mph 4.6 mph 49 % 0.00 in
16:46 38.0 °F 20.5 °F 29.96 in South 3.4 mph 5.8 mph 49 % 0.00 in
16:51 37.9 °F 20.4 °F 29.96 in South 3.7 mph 10.4 mph 49 % 0.00 in
16:56 37.8 °F 20.8 °F 29.95 in SSW 4.3 mph 6.9 mph 50 % 0.00 in
17:01 37.7 °F 20.7 °F 29.96 in SSW 6.2 mph 8.1 mph 50 % 0.00 in
17:06 37.6 °F 21.1 °F 29.95 in South 5.0 mph 8.1 mph 51 % 0.00 in
17:11 37.4 °F 21.4 °F 29.96 in South 4.5 mph 10.4 mph 52 % 0.00 in
17:16 37.3 °F 21.7 °F 29.96 in SSW 2.2 mph 4.0 mph 53 % 0.00 in
17:22 37.2 °F 22.5 °F 29.96 in SSW 4.5 mph 8.0 mph 55 % 0.00 in
17:27 37.0 °F 22.7 °F 29.96 in SW 5.4 mph 9.2 mph 56 % 0.00 in
17:32 36.8 °F 23.0 °F 29.96 in South 3.1 mph 6.9 mph 57 % 0.00 in
17:37 36.6 °F 23.6 °F 29.96 in South 6.8 mph 11.5 mph 59 % 0.00 in
17:42 36.4 °F 23.4 °F 29.96 in SSW 5.8 mph 8.1 mph 59 % 0.00 in
17:47 36.2 °F 23.6 °F 29.96 in SW 1.4 mph 4.6 mph 60 % 0.00 in
17:52 36.1 °F 23.5 °F 29.96 in SW 4.7 mph 9.0 mph 60 % 0.00 in
17:57 35.9 °F 23.7 °F 29.96 in SSW 2.9 mph 3.5 mph 61 % 0.00 in
18:02 35.8 °F 24.0 °F 29.96 in SSW 3.0 mph 11.5 mph 62 % 0.00 in
18:07 35.7 °F 24.3 °F 29.96 in SSW 3.6 mph 5.0 mph 63 % 0.00 in
18:13 35.6 °F 24.6 °F 29.96 in SSW 2.1 mph 4.6 mph 64 % 0.00 in
18:18 35.4 °F 24.8 °F 29.97 in SSW 2.1 mph 4.6 mph 65 % 0.00 in
18:23 35.3 °F 25.1 °F 29.97 in SSW 2.5 mph 6.0 mph 66 % 0.00 in
18:28 35.2 °F 25.0 °F 29.97 in SSW 2.0 mph 3.5 mph 66 % 0.00 in
18:33 35.1 °F 25.2 °F 29.97 in South 2.7 mph 4.6 mph 67 % 0.00 in
18:38 35.0 °F 25.1 °F 29.97 in SSW 2.7 mph 4.0 mph 67 % 0.00 in
18:43 34.9 °F 25.4 °F 29.97 in South 2.7 mph 4.6 mph 68 % 0.00 in
18:48 34.8 °F 25.3 °F 29.97 in SSW 2.3 mph 5.0 mph 68 % 0.00 in
18:53 34.7 °F 25.2 °F 29.97 in SSW 2.5 mph 3.5 mph 68 % 0.00 in
18:58 34.7 °F 25.2 °F 29.96 in SSW 2.3 mph 5.0 mph 68 % 0.00 in
19:04 34.6 °F 25.1 °F 29.97 in SSW 2.1 mph 6.9 mph 68 % 0.00 in
19:09 34.6 °F 25.1 °F 29.97 in SW 4.7 mph 6.9 mph 68 % 0.00 in
19:14 34.6 °F 24.8 °F 29.97 in SSW 1.5 mph 6.9 mph 67 % 0.00 in
19:19 34.7 °F 24.5 °F 29.96 in SSW 1.6 mph 5.0 mph 66 % 0.00 in
19:29 34.7 °F 24.5 °F 29.96 in SW 2.8 mph 4.6 mph 66 % 0.00 in
19:34 34.7 °F 24.5 °F 29.97 in SW 3.0 mph 4.0 mph 66 % 0.00 in
19:39 34.8 °F 24.2 °F 29.97 in SW 1.0 mph 3.5 mph 65 % 0.00 in
19:44 34.7 °F 24.1 °F 29.97 in SSW 3.1 mph 8.1 mph 65 % 0.00 in
19:49 34.8 °F 23.9 °F 29.97 in SSW 3.2 mph 5.8 mph 64 % 0.00 in
19:55 34.9 °F 23.6 °F 29.96 in SW 3.9 mph 8.1 mph 63 % 0.00 in
20:00 35.0 °F 23.3 °F 29.96 in SW 5.4 mph 9.0 mph 62 % 0.00 in
20:05 35.2 °F 23.1 °F 29.96 in SW 5.3 mph 9.2 mph 61 % 0.00 in
20:10 35.4 °F 22.9 °F 29.96 in SSW 4.9 mph 9.2 mph 60 % 0.00 in
20:15 35.7 °F 23.2 °F 29.96 in SW 4.4 mph 5.8 mph 60 % 0.00 in
20:20 36.0 °F 23.0 °F 29.96 in SW 4.1 mph 6.0 mph 59 % 0.00 in
20:25 36.2 °F 23.2 °F 29.96 in WSW 3.7 mph 5.8 mph 59 % 0.00 in
20:30 36.2 °F 23.2 °F 29.96 in SSW 4.8 mph 8.0 mph 59 % 0.00 in
20:35 36.4 °F 23.0 °F 29.96 in SSW 6.3 mph 9.2 mph 58 % 0.00 in
20:40 36.5 °F 23.1 °F 29.96 in SSW 5.5 mph 9.0 mph 58 % 0.00 in
20:46 36.6 °F 23.2 °F 29.96 in SW 4.5 mph 6.9 mph 58 % 0.00 in
20:51 36.6 °F 23.2 °F 29.96 in WSW 1.7 mph 4.0 mph 58 % 0.00 in
20:56 36.7 °F 23.3 °F 29.96 in SSW 3.8 mph 5.8 mph 58 % 0.00 in
21:01 36.7 °F 23.3 °F 29.96 in WNW 0.7 mph 3.5 mph 58 % 0.00 in
21:06 36.7 °F 23.3 °F 29.96 in SSW 3.1 mph 6.0 mph 58 % 0.00 in
21:11 36.7 °F 23.7 °F 29.96 in SSW 5.9 mph 8.1 mph 59 % 0.00 in
21:16 36.7 °F 23.7 °F 29.96 in SSW 2.1 mph 5.8 mph 59 % 0.00 in
21:21 36.8 °F 23.8 °F 29.96 in SW 3.5 mph 6.9 mph 59 % 0.00 in
21:26 36.8 °F 23.4 °F 29.96 in WSW 3.8 mph 6.0 mph 58 % 0.00 in
21:31 37.0 °F 23.2 °F 29.96 in West 4.8 mph 11.5 mph 57 % 0.00 in
21:37 37.2 °F 23.4 °F 29.96 in WSW 5.3 mph 9.2 mph 57 % 0.00 in
21:42 37.4 °F 23.5 °F 29.96 in WSW 5.5 mph 9.2 mph 57 % 0.00 in
21:47 37.5 °F 23.6 °F 29.96 in WSW 3.9 mph 11.5 mph 57 % 0.00 in
21:52 37.5 °F 23.6 °F 29.96 in SW 5.6 mph 9.2 mph 57 % 0.00 in
21:57 37.5 °F 23.6 °F 29.96 in SSW 2.1 mph 6.9 mph 57 % 0.00 in
22:02 37.5 °F 23.6 °F 29.96 in SW 2.4 mph 4.6 mph 57 % 0.00 in
22:07 37.4 °F 23.5 °F 29.97 in SW 2.8 mph 4.6 mph 57 % 0.00 in
22:12 37.3 °F 23.4 °F 29.96 in SSW 4.0 mph 7.0 mph 57 % 0.00 in
22:17 37.3 °F 23.9 °F 29.96 in SW 5.8 mph 8.1 mph 58 % 0.00 in
22:22 37.2 °F 23.8 °F 29.96 in SW 4.7 mph 9.0 mph 58 % 0.00 in
22:28 37.1 °F 23.7 °F 29.96 in SW 3.7 mph 5.8 mph 58 % 0.00 in
22:33 37.1 °F 24.1 °F 29.96 in SSW 5.5 mph 8.1 mph 59 % 0.00 in
22:38 37.1 °F 23.7 °F 29.95 in SW 7.1 mph 12.7 mph 58 % 0.00 in
22:43 37.3 °F 23.9 °F 29.96 in WSW 5.4 mph 9.2 mph 58 % 0.00 in
22:48 37.5 °F 24.1 °F 29.96 in SW 7.2 mph 10.4 mph 58 % 0.00 in
22:53 37.5 °F 24.1 °F 29.96 in SW 5.0 mph 10.0 mph 58 % 0.00 in
22:58 37.6 °F 24.1 °F 29.96 in WSW 4.0 mph 6.0 mph 58 % 0.00 in
23:03 37.5 °F 24.1 °F 29.95 in WSW 3.5 mph 6.9 mph 58 % 0.00 in
23:08 37.5 °F 24.1 °F 29.95 in SSW 4.1 mph 8.1 mph 58 % 0.00 in
23:13 37.5 °F 24.1 °F 29.95 in WSW 5.3 mph 10.4 mph 58 % 0.00 in
23:19 37.3 °F 24.3 °F 29.95 in WSW 3.7 mph 8.1 mph 59 % 0.00 in
23:24 37.3 °F 24.3 °F 29.95 in SW 6.4 mph 10.4 mph 59 % 0.00 in
23:29 37.2 °F 24.2 °F 29.95 in SW 4.5 mph 7.0 mph 59 % 0.00 in
23:34 37.2 °F 24.2 °F 29.95 in SSW 3.4 mph 6.0 mph 59 % 0.00 in
23:39 37.1 °F 24.1 °F 29.95 in SSW 1.8 mph 3.5 mph 59 % 0.00 in
23:44 37.2 °F 24.2 °F 29.95 in SSW 4.4 mph 6.9 mph 59 % 0.00 in
23:49 37.2 °F 24.6 °F 29.95 in WSW 6.0 mph 10.4 mph 60 % 0.00 in
23:54 37.2 °F 24.6 °F 29.95 in WSW 5.7 mph 10.0 mph 60 % 0.00 in
23:59 37.2 °F 24.6 °F 29.95 in SSW 4.7 mph 5.8 mph 60 % 0.00 in
Crab Meadow Weather
Compliments of Weather Underground - 2.75 mb

Script developed by  Jim McMurry - jmcmurry@mwt.net Adapted for the template by  Wim van der Kuil - Leuven-Template.eu

Weather Terms: Heavy Sleet Warning - Accumulations of 1/2 inch or more of sleet.